sensor_id;sensor_type;location;lat;lon;timestamp;temperature;humidity
37222;DHT22;23119;51.842;-2.230;2023-05-27T00:00:48;13.30;97.20
37222;DHT22;23119;51.842;-2.230;2023-05-27T00:03:20;13.30;97.30
37222;DHT22;23119;51.842;-2.230;2023-05-27T00:05:48;13.30;97.10
37222;DHT22;23119;51.842;-2.230;2023-05-27T00:08:16;13.30;97.00
37222;DHT22;23119;51.842;-2.230;2023-05-27T00:10:45;13.20;96.90
37222;DHT22;23119;51.842;-2.230;2023-05-27T00:13:14;13.30;97.00
37222;DHT22;23119;51.842;-2.230;2023-05-27T00:15:40;13.20;96.80
37222;DHT22;23119;51.842;-2.230;2023-05-27T00:18:06;13.20;96.80
37222;DHT22;23119;51.842;-2.230;2023-05-27T00:20:32;13.20;96.90
37222;DHT22;23119;51.842;-2.230;2023-05-27T00:22:58;13.20;96.90
37222;DHT22;23119;51.842;-2.230;2023-05-27T00:25:29;13.20;96.90
37222;DHT22;23119;51.842;-2.230;2023-05-27T00:27:55;13.20;97.00
37222;DHT22;23119;51.842;-2.230;2023-05-27T00:30:21;13.20;97.10
37222;DHT22;23119;51.842;-2.230;2023-05-27T00:32:47;13.20;97.20
37222;DHT22;23119;51.842;-2.230;2023-05-27T00:35:12;13.20;97.30
37222;DHT22;23119;51.842;-2.230;2023-05-27T00:37:38;13.20;97.40
37222;DHT22;23119;51.842;-2.230;2023-05-27T00:40:07;13.10;97.50
37222;DHT22;23119;51.842;-2.230;2023-05-27T00:42:35;13.00;97.50
37222;DHT22;23119;51.842;-2.230;2023-05-27T00:45:07;13.00;97.70
37222;DHT22;23119;51.842;-2.230;2023-05-27T00:47:33;12.90;97.90
37222;DHT22;23119;51.842;-2.230;2023-05-27T00:50:05;12.90;98.10
37222;DHT22;23119;51.842;-2.230;2023-05-27T00:52:31;12.80;98.20
37222;DHT22;23119;51.842;-2.230;2023-05-27T00:54:57;12.70;98.30
37222;DHT22;23119;51.842;-2.230;2023-05-27T00:57:25;12.70;98.50
37222;DHT22;23119;51.842;-2.230;2023-05-27T00:59:53;12.60;98.60
37222;DHT22;23119;51.842;-2.230;2023-05-27T01:02:31;12.60;98.60
37222;DHT22;23119;51.842;-2.230;2023-05-27T01:04:59;12.40;99.40
37222;DHT22;23119;51.842;-2.230;2023-05-27T01:10:54;12.30;99.70
37222;DHT22;23119;51.842;-2.230;2023-05-27T01:16:03;12.00;99.90
37222;DHT22;23119;51.842;-2.230;2023-05-27T01:18:34;12.00;99.90
37222;DHT22;23119;51.842;-2.230;2023-05-27T01:21:05;11.90;99.90
37222;DHT22;23119;51.842;-2.230;2023-05-27T01:23:31;11.80;99.90
37222;DHT22;23119;51.842;-2.230;2023-05-27T01:25:58;11.80;99.90
37222;DHT22;23119;51.842;-2.230;2023-05-27T01:28:24;11.70;99.90
37222;DHT22;23119;51.842;-2.230;2023-05-27T01:31:04;11.60;99.90
37222;DHT22;23119;51.842;-2.230;2023-05-27T01:33:35;11.50;99.90
37222;DHT22;23119;51.842;-2.230;2023-05-27T01:36:07;11.50;99.90
37222;DHT22;23119;51.842;-2.230;2023-05-27T01:38:40;11.40;99.90
37222;DHT22;23119;51.842;-2.230;2023-05-27T01:41:14;11.40;99.90
37222;DHT22;23119;51.842;-2.230;2023-05-27T01:43:41;11.30;99.90
37222;DHT22;23119;51.842;-2.230;2023-05-27T01:46:07;11.20;99.90
37222;DHT22;23119;51.842;-2.230;2023-05-27T01:48:33;11.20;99.90
37222;DHT22;23119;51.842;-2.230;2023-05-27T01:50:59;11.10;99.90
37222;DHT22;23119;51.842;-2.230;2023-05-27T01:53:24;11.10;99.90
37222;DHT22;23119;51.842;-2.230;2023-05-27T01:55:50;11.00;99.90
37222;DHT22;23119;51.842;-2.230;2023-05-27T01:58:16;11.00;99.90
37222;DHT22;23119;51.842;-2.230;2023-05-27T02:00:41;10.90;99.90
37222;DHT22;23119;51.842;-2.230;2023-05-27T02:03:07;11.00;99.90
37222;DHT22;23119;51.842;-2.230;2023-05-27T02:05:33;10.90;99.90
37222;DHT22;23119;51.842;-2.230;2023-05-27T02:08:01;10.90;99.90
37222;DHT22;23119;51.842;-2.230;2023-05-27T02:10:28;10.90;99.90
37222;DHT22;23119;51.842;-2.230;2023-05-27T02:12:54;10.90;99.90
37222;DHT22;23119;51.842;-2.230;2023-05-27T02:15:20;10.90;99.90
37222;DHT22;23119;51.842;-2.230;2023-05-27T02:17:51;10.90;99.90
37222;DHT22;23119;51.842;-2.230;2023-05-27T02:20:24;10.80;99.90
37222;DHT22;23119;51.842;-2.230;2023-05-27T02:22:52;10.90;99.90
37222;DHT22;23119;51.842;-2.230;2023-05-27T02:25:18;10.80;99.90
37222;DHT22;23119;51.842;-2.230;2023-05-27T02:27:46;10.80;99.90
37222;DHT22;23119;51.842;-2.230;2023-05-27T02:30:14;10.70;99.90
37222;DHT22;23119;51.842;-2.230;2023-05-27T02:32:40;10.70;99.90
37222;DHT22;23119;51.842;-2.230;2023-05-27T02:35:07;10.70;99.90
37222;DHT22;23119;51.842;-2.230;2023-05-27T02:37:33;10.70;99.90
37222;DHT22;23119;51.842;-2.230;2023-05-27T02:40:01;10.60;99.90
37222;DHT22;23119;51.842;-2.230;2023-05-27T02:42:28;10.60;99.90
37222;DHT22;23119;51.842;-2.230;2023-05-27T02:44:54;10.50;99.90
37222;DHT22;23119;51.842;-2.230;2023-05-27T02:47:19;10.50;99.90
37222;DHT22;23119;51.842;-2.230;2023-05-27T02:49:45;10.40;99.90
37222;DHT22;23119;51.842;-2.230;2023-05-27T02:52:11;10.40;99.90
37222;DHT22;23119;51.842;-2.230;2023-05-27T02:54:36;10.40;99.90
37222;DHT22;23119;51.842;-2.230;2023-05-27T02:57:02;10.30;99.90
37222;DHT22;23119;51.842;-2.230;2023-05-27T02:59:30;10.30;99.90
37222;DHT22;23119;51.842;-2.230;2023-05-27T03:01:58;10.30;99.90
37222;DHT22;23119;51.842;-2.230;2023-05-27T03:04:24;10.30;99.90
37222;DHT22;23119;51.842;-2.230;2023-05-27T03:06:49;10.20;99.90
37222;DHT22;23119;51.842;-2.230;2023-05-27T03:09:17;10.20;99.90
37222;DHT22;23119;51.842;-2.230;2023-05-27T03:11:45;10.20;99.90
37222;DHT22;23119;51.842;-2.230;2023-05-27T03:14:11;10.10;99.90
37222;DHT22;23119;51.842;-2.230;2023-05-27T03:16:37;10.10;99.90
37222;DHT22;23119;51.842;-2.230;2023-05-27T03:19:07;10.10;99.90
37222;DHT22;23119;51.842;-2.230;2023-05-27T03:21:34;10.10;99.90
37222;DHT22;23119;51.842;-2.230;2023-05-27T03:24:00;10.10;99.90
37222;DHT22;23119;51.842;-2.230;2023-05-27T03:26:28;10.10;99.90
37222;DHT22;23119;51.842;-2.230;2023-05-27T03:28:54;10.10;99.90
37222;DHT22;23119;51.842;-2.230;2023-05-27T03:31:20;10.10;99.90
37222;DHT22;23119;51.842;-2.230;2023-05-27T03:33:49;10.10;99.90
37222;DHT22;23119;51.842;-2.230;2023-05-27T03:36:15;10.00;99.90
37222;DHT22;23119;51.842;-2.230;2023-05-27T03:38:40;9.90;99.90
37222;DHT22;23119;51.842;-2.230;2023-05-27T03:41:06;9.90;99.90
37222;DHT22;23119;51.842;-2.230;2023-05-27T03:43:32;9.80;99.90
37222;DHT22;23119;51.842;-2.230;2023-05-27T03:45:57;9.80;99.90
37222;DHT22;23119;51.842;-2.230;2023-05-27T03:48:23;9.70;99.90
37222;DHT22;23119;51.842;-2.230;2023-05-27T03:50:49;9.80;99.90
37222;DHT22;23119;51.842;-2.230;2023-05-27T03:53:15;9.80;99.90
37222;DHT22;23119;51.842;-2.230;2023-05-27T03:55:40;9.70;99.90
37222;DHT22;23119;51.842;-2.230;2023-05-27T03:58:06;9.80;99.90
37222;DHT22;23119;51.842;-2.230;2023-05-27T04:00:34;9.70;99.90
37222;DHT22;23119;51.842;-2.230;2023-05-27T04:03:01;9.70;99.90
37222;DHT22;23119;51.842;-2.230;2023-05-27T04:05:27;9.70;99.90
37222;DHT22;23119;51.842;-2.230;2023-05-27T04:07:53;9.70;99.90
37222;DHT22;23119;51.842;-2.230;2023-05-27T04:10:23;9.80;99.90
37222;DHT22;23119;51.842;-2.230;2023-05-27T04:12:49;9.80;99.90
37222;DHT22;23119;51.842;-2.230;2023-05-27T04:15:15;9.90;99.90
37222;DHT22;23119;51.842;-2.230;2023-05-27T04:17:40;9.90;99.90
37222;DHT22;23119;51.842;-2.230;2023-05-27T04:20:10;10.00;99.90
37222;DHT22;23119;51.842;-2.230;2023-05-27T04:22:43;10.10;99.90
37222;DHT22;23119;51.842;-2.230;2023-05-27T04:25:09;10.10;99.90
37222;DHT22;23119;51.842;-2.230;2023-05-27T04:27:35;10.30;99.90
37222;DHT22;23119;51.842;-2.230;2023-05-27T04:30:05;10.60;99.90
37222;DHT22;23119;51.842;-2.230;2023-05-27T04:32:41;11.00;99.90
37222;DHT22;23119;51.842;-2.230;2023-05-27T04:35:07;11.50;99.90
37222;DHT22;23119;51.842;-2.230;2023-05-27T04:37:34;11.90;99.90
37222;DHT22;23119;51.842;-2.230;2023-05-27T04:40:03;12.50;99.90
37222;DHT22;23119;51.842;-2.230;2023-05-27T04:42:29;13.10;99.90
37222;DHT22;23119;51.842;-2.230;2023-05-27T04:44:55;13.70;99.90
37222;DHT22;23119;51.842;-2.230;2023-05-27T04:47:23;14.30;99.90
37222;DHT22;23119;51.842;-2.230;2023-05-27T04:49:51;14.80;99.90
37222;DHT22;23119;51.842;-2.230;2023-05-27T04:52:17;15.30;99.90
37222;DHT22;23119;51.842;-2.230;2023-05-27T04:54:46;15.90;99.10
37222;DHT22;23119;51.842;-2.230;2023-05-27T04:57:13;16.70;97.80
37222;DHT22;23119;51.842;-2.230;2023-05-27T04:59:43;17.30;96.40
37222;DHT22;23119;51.842;-2.230;2023-05-27T05:02:27;17.80;95.30
37222;DHT22;23119;51.842;-2.230;2023-05-27T05:05:04;18.00;93.90
37222;DHT22;23119;51.842;-2.230;2023-05-27T05:07:33;18.00;93.20
37222;DHT22;23119;51.842;-2.230;2023-05-27T05:09:59;17.80;92.80
37222;DHT22;23119;51.842;-2.230;2023-05-27T05:12:30;17.90;93.10
37222;DHT22;23119;51.842;-2.230;2023-05-27T05:14:58;18.20;92.70
37222;DHT22;23119;51.842;-2.230;2023-05-27T05:17:24;18.80;91.60
37222;DHT22;23119;51.842;-2.230;2023-05-27T05:19:52;19.50;91.30
37222;DHT22;23119;51.842;-2.230;2023-05-27T05:22:18;20.00;90.80
37222;DHT22;23119;51.842;-2.230;2023-05-27T05:24:48;20.20;90.00
37222;DHT22;23119;51.842;-2.230;2023-05-27T05:27:17;21.00;88.40
37222;DHT22;23119;51.842;-2.230;2023-05-27T05:29:43;21.10;86.50
37222;DHT22;23119;51.842;-2.230;2023-05-27T05:32:12;21.60;83.50
37222;DHT22;23119;51.842;-2.230;2023-05-27T05:34:38;22.60;83.40
37222;DHT22;23119;51.842;-2.230;2023-05-27T05:37:04;23.00;82.40
37222;DHT22;23119;51.842;-2.230;2023-05-27T05:39:30;23.20;81.80
37222;DHT22;23119;51.842;-2.230;2023-05-27T05:41:56;23.40;79.20
37222;DHT22;23119;51.842;-2.230;2023-05-27T05:44:23;24.20;80.50
37222;DHT22;23119;51.842;-2.230;2023-05-27T05:46:53;25.00;79.10
37222;DHT22;23119;51.842;-2.230;2023-05-27T05:49:19;25.40;75.40
37222;DHT22;23119;51.842;-2.230;2023-05-27T05:51:45;26.20;76.00
37222;DHT22;23119;51.842;-2.230;2023-05-27T05:54:11;26.60;75.30
37222;DHT22;23119;51.842;-2.230;2023-05-27T05:56:36;27.30;73.90
37222;DHT22;23119;51.842;-2.230;2023-05-27T05:59:05;28.00;73.20
37222;DHT22;23119;51.842;-2.230;2023-05-27T06:01:31;28.30;72.40
37222;DHT22;23119;51.842;-2.230;2023-05-27T06:03:56;28.70;70.50
37222;DHT22;23119;51.842;-2.230;2023-05-27T06:06:23;28.70;70.10
37222;DHT22;23119;51.842;-2.230;2023-05-27T06:08:51;28.60;68.90
37222;DHT22;23119;51.842;-2.230;2023-05-27T06:11:17;28.40;68.50
37222;DHT22;23119;51.842;-2.230;2023-05-27T06:13:47;28.00;69.00
37222;DHT22;23119;51.842;-2.230;2023-05-27T06:16:13;28.40;68.70
37222;DHT22;23119;51.842;-2.230;2023-05-27T06:18:38;27.60;68.80
37222;DHT22;23119;51.842;-2.230;2023-05-27T06:21:14;28.00;69.10
37222;DHT22;23119;51.842;-2.230;2023-05-27T06:23:39;28.20;68.70
37222;DHT22;23119;51.842;-2.230;2023-05-27T06:26:05;28.50;69.20
37222;DHT22;23119;51.842;-2.230;2023-05-27T06:28:33;28.50;68.80
37222;DHT22;23119;51.842;-2.230;2023-05-27T06:30:59;28.40;67.80
37222;DHT22;23119;51.842;-2.230;2023-05-27T06:33:25;28.20;67.80
37222;DHT22;23119;51.842;-2.230;2023-05-27T06:35:54;28.90;68.30
37222;DHT22;23119;51.842;-2.230;2023-05-27T06:38:20;29.10;67.60
37222;DHT22;23119;51.842;-2.230;2023-05-27T06:40:45;29.30;67.30
37222;DHT22;23119;51.842;-2.230;2023-05-27T06:43:11;29.40;67.10
37222;DHT22;23119;51.842;-2.230;2023-05-27T06:45:37;29.20;65.90
37222;DHT22;23119;51.842;-2.230;2023-05-27T06:48:04;28.60;66.80
37222;DHT22;23119;51.842;-2.230;2023-05-27T06:50:33;28.70;67.50
37222;DHT22;23119;51.842;-2.230;2023-05-27T06:52:59;28.80;67.10
37222;DHT22;23119;51.842;-2.230;2023-05-27T06:55:25;30.10;66.10
37222;DHT22;23119;51.842;-2.230;2023-05-27T06:57:50;30.50;65.70
37222;DHT22;23119;51.842;-2.230;2023-05-27T07:00:19;31.20;65.40
37222;DHT22;23119;51.842;-2.230;2023-05-27T07:02:45;31.50;65.10
37222;DHT22;23119;51.842;-2.230;2023-05-27T07:05:12;31.10;65.30
37222;DHT22;23119;51.842;-2.230;2023-05-27T07:07:40;31.50;65.30
37222;DHT22;23119;51.842;-2.230;2023-05-27T07:10:06;31.50;65.10
37222;DHT22;23119;51.842;-2.230;2023-05-27T07:12:37;31.50;64.90
37222;DHT22;23119;51.842;-2.230;2023-05-27T07:15:03;30.60;64.30
37222;DHT22;23119;51.842;-2.230;2023-05-27T07:17:32;30.60;65.50
37222;DHT22;23119;51.842;-2.230;2023-05-27T07:20:00;31.20;64.80
37222;DHT22;23119;51.842;-2.230;2023-05-27T07:22:26;31.70;64.50
37222;DHT22;23119;51.842;-2.230;2023-05-27T07:24:52;30.70;64.50
37222;DHT22;23119;51.842;-2.230;2023-05-27T07:27:18;31.30;64.50
37222;DHT22;23119;51.842;-2.230;2023-05-27T07:29:46;31.30;64.30
37222;DHT22;23119;51.842;-2.230;2023-05-27T07:32:14;31.30;64.20
37222;DHT22;23119;51.842;-2.230;2023-05-27T07:34:45;31.90;63.60
37222;DHT22;23119;51.842;-2.230;2023-05-27T07:37:15;31.90;62.90
37222;DHT22;23119;51.842;-2.230;2023-05-27T07:39:44;32.70;63.40
37222;DHT22;23119;51.842;-2.230;2023-05-27T07:42:09;32.90;62.20
37222;DHT22;23119;51.842;-2.230;2023-05-27T07:44:38;33.60;62.50
37222;DHT22;23119;51.842;-2.230;2023-05-27T07:47:06;33.10;61.90
37222;DHT22;23119;51.842;-2.230;2023-05-27T07:49:35;33.20;61.70
37222;DHT22;23119;51.842;-2.230;2023-05-27T07:52:09;33.40;61.60
37222;DHT22;23119;51.842;-2.230;2023-05-27T07:54:34;33.30;61.20
37222;DHT22;23119;51.842;-2.230;2023-05-27T07:57:06;33.40;61.40
37222;DHT22;23119;51.842;-2.230;2023-05-27T07:59:32;33.10;61.40
37222;DHT22;23119;51.842;-2.230;2023-05-27T08:02:00;33.20;62.00
37222;DHT22;23119;51.842;-2.230;2023-05-27T08:04:26;33.10;61.90
37222;DHT22;23119;51.842;-2.230;2023-05-27T08:06:54;32.80;61.90
37222;DHT22;23119;51.842;-2.230;2023-05-27T08:09:22;32.30;62.10
37222;DHT22;23119;51.842;-2.230;2023-05-27T08:11:54;31.90;62.70
37222;DHT22;23119;51.842;-2.230;2023-05-27T08:14:22;31.40;62.70
37222;DHT22;23119;51.842;-2.230;2023-05-27T08:16:49;30.90;63.50
37222;DHT22;23119;51.842;-2.230;2023-05-27T08:19:14;30.40;64.40
37222;DHT22;23119;51.842;-2.230;2023-05-27T08:21:42;29.80;64.80
37222;DHT22;23119;51.842;-2.230;2023-05-27T08:24:14;29.50;65.20
37222;DHT22;23119;51.842;-2.230;2023-05-27T08:26:40;29.10;65.70
37222;DHT22;23119;51.842;-2.230;2023-05-27T08:29:06;29.20;66.50
37222;DHT22;23119;51.842;-2.230;2023-05-27T08:31:34;28.90;66.70
37222;DHT22;23119;51.842;-2.230;2023-05-27T08:34:00;28.70;67.00
37222;DHT22;23119;51.842;-2.230;2023-05-27T08:36:30;28.30;67.70
37222;DHT22;23119;51.842;-2.230;2023-05-27T08:39:00;28.30;68.30
37222;DHT22;23119;51.842;-2.230;2023-05-27T08:41:28;27.40;68.00
37222;DHT22;23119;51.842;-2.230;2023-05-27T08:43:59;26.90;68.70
37222;DHT22;23119;51.842;-2.230;2023-05-27T08:46:26;26.60;69.30
37222;DHT22;23119;51.842;-2.230;2023-05-27T08:48:53;26.00;69.90
37222;DHT22;23119;51.842;-2.230;2023-05-27T08:51:26;25.60;70.70
37222;DHT22;23119;51.842;-2.230;2023-05-27T08:53:55;25.40;71.60
37222;DHT22;23119;51.842;-2.230;2023-05-27T08:56:21;25.20;71.20
37222;DHT22;23119;51.842;-2.230;2023-05-27T08:58:53;24.80;70.80
37222;DHT22;23119;51.842;-2.230;2023-05-27T09:01:24;24.70;70.00
37222;DHT22;23119;51.842;-2.230;2023-05-27T09:03:51;24.10;70.20
37222;DHT22;23119;51.842;-2.230;2023-05-27T09:06:25;23.70;72.30
37222;DHT22;23119;51.842;-2.230;2023-05-27T09:08:51;23.60;72.80
37222;DHT22;23119;51.842;-2.230;2023-05-27T09:11:26;23.60;73.60
37222;DHT22;23119;51.842;-2.230;2023-05-27T09:13:59;23.40;73.90
37222;DHT22;23119;51.842;-2.230;2023-05-27T09:16:28;23.70;74.40
37222;DHT22;23119;51.842;-2.230;2023-05-27T09:18:58;23.80;74.70
37222;DHT22;23119;51.842;-2.230;2023-05-27T09:21:24;23.80;74.80
37222;DHT22;23119;51.842;-2.230;2023-05-27T09:23:56;23.50;75.20
37222;DHT22;23119;51.842;-2.230;2023-05-27T09:26:23;23.00;76.30
37222;DHT22;23119;51.842;-2.230;2023-05-27T09:28:51;22.60;76.70
37222;DHT22;23119;51.842;-2.230;2023-05-27T09:31:17;22.90;77.20
37222;DHT22;23119;51.842;-2.230;2023-05-27T09:33:48;23.10;77.40
37222;DHT22;23119;51.842;-2.230;2023-05-27T09:36:20;23.10;77.20
37222;DHT22;23119;51.842;-2.230;2023-05-27T09:38:50;23.20;77.50
37222;DHT22;23119;51.842;-2.230;2023-05-27T09:41:23;23.10;77.70
37222;DHT22;23119;51.842;-2.230;2023-05-27T09:43:54;23.10;77.80
37222;DHT22;23119;51.842;-2.230;2023-05-27T09:46:21;22.70;78.20
37222;DHT22;23119;51.842;-2.230;2023-05-27T09:48:48;22.80;78.50
37222;DHT22;23119;51.842;-2.230;2023-05-27T09:51:16;22.90;78.40
37222;DHT22;23119;51.842;-2.230;2023-05-27T09:53:49;23.10;78.20
37222;DHT22;23119;51.842;-2.230;2023-05-27T09:56:19;23.10;77.70
37222;DHT22;23119;51.842;-2.230;2023-05-27T09:58:46;23.40;77.60
37222;DHT22;23119;51.842;-2.230;2023-05-27T10:01:12;23.60;77.20
37222;DHT22;23119;51.842;-2.230;2023-05-27T10:03:46;23.50;76.90
37222;DHT22;23119;51.842;-2.230;2023-05-27T10:06:15;23.10;75.70
37222;DHT22;23119;51.842;-2.230;2023-05-27T10:08:44;22.90;76.10
37222;DHT22;23119;51.842;-2.230;2023-05-27T10:11:13;23.10;76.10
37222;DHT22;23119;51.842;-2.230;2023-05-27T10:13:39;23.20;76.30
37222;DHT22;23119;51.842;-2.230;2023-05-27T10:16:29;23.40;76.50
37222;DHT22;23119;51.842;-2.230;2023-05-27T10:19:00;23.50;76.50
37222;DHT22;23119;51.842;-2.230;2023-05-27T10:21:29;23.50;76.40
37222;DHT22;23119;51.842;-2.230;2023-05-27T10:24:04;23.70;76.50
37222;DHT22;23119;51.842;-2.230;2023-05-27T10:26:44;23.90;76.70
37222;DHT22;23119;51.842;-2.230;2023-05-27T10:29:17;24.20;76.70
37222;DHT22;23119;51.842;-2.230;2023-05-27T10:31:53;24.50;76.40
37222;DHT22;23119;51.842;-2.230;2023-05-27T10:34:42;24.80;76.00
37222;DHT22;23119;51.842;-2.230;2023-05-27T10:37:09;24.90;73.80
37222;DHT22;23119;51.842;-2.230;2023-05-27T10:39:37;24.70;74.10
37222;DHT22;23119;51.842;-2.230;2023-05-27T10:42:06;24.70;74.10
37222;DHT22;23119;51.842;-2.230;2023-05-27T10:44:37;24.70;74.20
37222;DHT22;23119;51.842;-2.230;2023-05-27T10:47:14;24.50;73.90
37222;DHT22;23119;51.842;-2.230;2023-05-27T10:49:41;24.40;74.20
37222;DHT22;23119;51.842;-2.230;2023-05-27T10:52:17;24.40;74.60
37222;DHT22;23119;51.842;-2.230;2023-05-27T10:54:46;24.00;73.40
37222;DHT22;23119;51.842;-2.230;2023-05-27T10:57:17;23.90;74.20
37222;DHT22;23119;51.842;-2.230;2023-05-27T10:59:54;24.10;74.70
37222;DHT22;23119;51.842;-2.230;2023-05-27T11:02:21;24.20;74.20
37222;DHT22;23119;51.842;-2.230;2023-05-27T11:04:50;24.20;73.80
37222;DHT22;23119;51.842;-2.230;2023-05-27T11:07:20;24.20;74.20
37222;DHT22;23119;51.842;-2.230;2023-05-27T11:09:54;24.20;74.40
37222;DHT22;23119;51.842;-2.230;2023-05-27T11:12:22;24.40;74.50
37222;DHT22;23119;51.842;-2.230;2023-05-27T11:14:49;24.50;74.50
37222;DHT22;23119;51.842;-2.230;2023-05-27T11:17:15;24.80;74.50
37222;DHT22;23119;51.842;-2.230;2023-05-27T11:19:42;25.00;74.30
37222;DHT22;23119;51.842;-2.230;2023-05-27T11:22:08;25.20;73.60
37222;DHT22;23119;51.842;-2.230;2023-05-27T11:24:36;25.10;72.40
37222;DHT22;23119;51.842;-2.230;2023-05-27T11:27:12;25.10;72.00
37222;DHT22;23119;51.842;-2.230;2023-05-27T11:29:40;24.90;72.00
37222;DHT22;23119;51.842;-2.230;2023-05-27T11:32:06;24.70;72.30
37222;DHT22;23119;51.842;-2.230;2023-05-27T11:34:36;24.50;73.00
37222;DHT22;23119;51.842;-2.230;2023-05-27T11:37:03;24.70;73.40
37222;DHT22;23119;51.842;-2.230;2023-05-27T11:39:30;24.90;74.10
37222;DHT22;23119;51.842;-2.230;2023-05-27T11:41:56;25.10;74.30
37222;DHT22;23119;51.842;-2.230;2023-05-27T11:44:23;25.30;73.70
37222;DHT22;23119;51.842;-2.230;2023-05-27T11:46:52;25.40;72.90
37222;DHT22;23119;51.842;-2.230;2023-05-27T11:49:18;25.10;71.30
37222;DHT22;23119;51.842;-2.230;2023-05-27T11:51:54;24.90;70.80
37222;DHT22;23119;51.842;-2.230;2023-05-27T11:54:26;24.70;72.30
37222;DHT22;23119;51.842;-2.230;2023-05-27T11:56:53;24.50;72.40
37222;DHT22;23119;51.842;-2.230;2023-05-27T11:59:20;24.40;72.70
37222;DHT22;23119;51.842;-2.230;2023-05-27T12:01:46;24.50;73.00
37222;DHT22;23119;51.842;-2.230;2023-05-27T12:04:12;24.50;72.80
37222;DHT22;23119;51.842;-2.230;2023-05-27T12:06:38;24.40;72.10
37222;DHT22;23119;51.842;-2.230;2023-05-27T12:09:04;24.30;71.20
37222;DHT22;23119;51.842;-2.230;2023-05-27T12:11:34;24.40;71.50
37222;DHT22;23119;51.842;-2.230;2023-05-27T12:14:00;24.20;71.90
37222;DHT22;23119;51.842;-2.230;2023-05-27T12:16:29;24.20;72.50
37222;DHT22;23119;51.842;-2.230;2023-05-27T12:18:55;24.40;72.30
37222;DHT22;23119;51.842;-2.230;2023-05-27T12:21:25;24.40;69.40
37222;DHT22;23119;51.842;-2.230;2023-05-27T12:23:54;24.30;69.10
37222;DHT22;23119;51.842;-2.230;2023-05-27T12:26:20;24.30;70.00
37222;DHT22;23119;51.842;-2.230;2023-05-27T12:28:49;24.40;70.10
37222;DHT22;23119;51.842;-2.230;2023-05-27T12:31:14;24.50;69.20
37222;DHT22;23119;51.842;-2.230;2023-05-27T12:33:40;24.30;68.70
37222;DHT22;23119;51.842;-2.230;2023-05-27T12:36:06;24.20;69.40
37222;DHT22;23119;51.842;-2.230;2023-05-27T12:38:32;24.40;70.20
37222;DHT22;23119;51.842;-2.230;2023-05-27T12:40:58;24.50;68.90
37222;DHT22;23119;51.842;-2.230;2023-05-27T12:43:24;24.20;68.60
37222;DHT22;23119;51.842;-2.230;2023-05-27T12:45:54;24.20;68.60
37222;DHT22;23119;51.842;-2.230;2023-05-27T12:48:21;24.40;68.20
37222;DHT22;23119;51.842;-2.230;2023-05-27T12:50:47;24.50;68.50
37222;DHT22;23119;51.842;-2.230;2023-05-27T12:53:13;24.50;67.50
37222;DHT22;23119;51.842;-2.230;2023-05-27T12:55:39;24.40;67.60
37222;DHT22;23119;51.842;-2.230;2023-05-27T12:58:05;24.40;67.40
37222;DHT22;23119;51.842;-2.230;2023-05-27T13:00:31;24.60;66.70
37222;DHT22;23119;51.842;-2.230;2023-05-27T13:02:57;24.50;66.50
37222;DHT22;23119;51.842;-2.230;2023-05-27T13:05:25;24.40;66.70
37222;DHT22;23119;51.842;-2.230;2023-05-27T13:08:09;24.50;67.30
37222;DHT22;23119;51.842;-2.230;2023-05-27T13:10:35;24.70;66.80
37222;DHT22;23119;51.842;-2.230;2023-05-27T13:13:01;24.60;65.70
37222;DHT22;23119;51.842;-2.230;2023-05-27T13:15:27;24.30;65.60
37222;DHT22;23119;51.842;-2.230;2023-05-27T13:17:56;24.40;65.80
37222;DHT22;23119;51.842;-2.230;2023-05-27T13:20:23;24.40;65.50
37222;DHT22;23119;51.842;-2.230;2023-05-27T13:22:49;24.50;64.90
37222;DHT22;23119;51.842;-2.230;2023-05-27T13:25:15;24.60;64.60
37222;DHT22;23119;51.842;-2.230;2023-05-27T13:27:45;24.80;65.20
37222;DHT22;23119;51.842;-2.230;2023-05-27T13:30:19;24.80;65.50
37222;DHT22;23119;51.842;-2.230;2023-05-27T13:32:47;24.70;64.10
37222;DHT22;23119;51.842;-2.230;2023-05-27T13:35:13;24.60;64.60
37222;DHT22;23119;51.842;-2.230;2023-05-27T13:37:39;24.30;63.90
37222;DHT22;23119;51.842;-2.230;2023-05-27T13:40:07;24.20;62.90
37222;DHT22;23119;51.842;-2.230;2023-05-27T13:42:33;24.10;65.00
37222;DHT22;23119;51.842;-2.230;2023-05-27T13:44:59;24.10;65.50
37222;DHT22;23119;51.842;-2.230;2023-05-27T13:47:30;24.20;64.90
37222;DHT22;23119;51.842;-2.230;2023-05-27T13:49:56;24.20;64.50
37222;DHT22;23119;51.842;-2.230;2023-05-27T13:52:24;24.20;65.40
37222;DHT22;23119;51.842;-2.230;2023-05-27T13:54:49;24.20;64.90
37222;DHT22;23119;51.842;-2.230;2023-05-27T13:57:15;24.40;65.20
37222;DHT22;23119;51.842;-2.230;2023-05-27T13:59:41;24.30;64.20
37222;DHT22;23119;51.842;-2.230;2023-05-27T14:02:09;24.50;64.70
37222;DHT22;23119;51.842;-2.230;2023-05-27T14:04:34;24.50;64.90
37222;DHT22;23119;51.842;-2.230;2023-05-27T14:07:00;24.20;63.10
37222;DHT22;23119;51.842;-2.230;2023-05-27T14:09:28;24.40;62.40
37222;DHT22;23119;51.842;-2.230;2023-05-27T14:11:54;24.50;62.00
37222;DHT22;23119;51.842;-2.230;2023-05-27T14:14:21;24.60;62.20
37222;DHT22;23119;51.842;-2.230;2023-05-27T14:16:46;24.50;61.70
37222;DHT22;23119;51.842;-2.230;2023-05-27T14:19:13;24.40;61.50
37222;DHT22;23119;51.842;-2.230;2023-05-27T14:21:38;24.40;61.80
37222;DHT22;23119;51.842;-2.230;2023-05-27T14:24:04;24.40;60.70
37222;DHT22;23119;51.842;-2.230;2023-05-27T14:26:30;24.50;61.50
37222;DHT22;23119;51.842;-2.230;2023-05-27T14:28:56;24.60;62.20
37222;DHT22;23119;51.842;-2.230;2023-05-27T14:31:21;24.60;62.20
37222;DHT22;23119;51.842;-2.230;2023-05-27T14:33:47;24.50;63.50
37222;DHT22;23119;51.842;-2.230;2023-05-27T14:36:13;24.40;60.00
37222;DHT22;23119;51.842;-2.230;2023-05-27T14:38:39;24.30;61.30
37222;DHT22;23119;51.842;-2.230;2023-05-27T14:41:04;24.20;62.20
37222;DHT22;23119;51.842;-2.230;2023-05-27T14:43:30;24.20;63.40
37222;DHT22;23119;51.842;-2.230;2023-05-27T14:45:57;24.20;64.20
37222;DHT22;23119;51.842;-2.230;2023-05-27T14:48:27;24.10;64.10
37222;DHT22;23119;51.842;-2.230;2023-05-27T14:50:53;24.20;64.60
37222;DHT22;23119;51.842;-2.230;2023-05-27T14:53:19;24.20;65.20
37222;DHT22;23119;51.842;-2.230;2023-05-27T14:55:44;24.10;65.60
37222;DHT22;23119;51.842;-2.230;2023-05-27T14:58:13;24.10;66.30
37222;DHT22;23119;51.842;-2.230;2023-05-27T15:00:47;23.80;65.20
37222;DHT22;23119;51.842;-2.230;2023-05-27T15:03:20;24.00;66.20
37222;DHT22;23119;51.842;-2.230;2023-05-27T15:05:49;24.10;66.00
37222;DHT22;23119;51.842;-2.230;2023-05-27T15:08:24;24.10;65.20
37222;DHT22;23119;51.842;-2.230;2023-05-27T15:10:50;24.10;65.70
37222;DHT22;23119;51.842;-2.230;2023-05-27T15:13:18;24.10;65.40
37222;DHT22;23119;51.842;-2.230;2023-05-27T15:15:45;24.10;65.40
37222;DHT22;23119;51.842;-2.230;2023-05-27T15:18:16;24.00;65.20
37222;DHT22;23119;51.842;-2.230;2023-05-27T15:20:44;23.90;64.90
37222;DHT22;23119;51.842;-2.230;2023-05-27T15:23:19;23.90;65.60
37222;DHT22;23119;51.842;-2.230;2023-05-27T15:25:47;23.90;65.40
37222;DHT22;23119;51.842;-2.230;2023-05-27T15:28:18;23.80;66.20